createdAt,value
2018-10-18T00:00:53.478Z,98331.53
2018-10-18T00:01:56.221Z,98328.33
2018-10-18T00:02:59.322Z,98320.83
2018-10-18T00:04:02.025Z,98328.52
2018-10-18T00:05:05.590Z,98334.70
2018-10-18T00:06:08.348Z,98329.98
2018-10-18T00:07:11.048Z,98327.69
2018-10-18T00:08:13.972Z,98331.45
2018-10-18T00:09:17.033Z,98330.26
2018-10-18T00:10:19.710Z,98327.19
2018-10-18T00:11:22.394Z,98326.44
2018-10-18T00:12:25.240Z,98328.34
2018-10-18T00:13:28.572Z,98323.99
2018-10-18T00:14:32.306Z,98327.54
2018-10-18T00:15:35.380Z,98324.72
2018-10-18T00:16:38.834Z,98323.38
2018-10-18T00:17:47.105Z,98327.84
2018-10-18T00:18:49.847Z,98323.38
2018-10-18T00:19:52.639Z,98326.09
2018-10-18T00:20:55.516Z,98327.56
2018-10-18T00:21:59.199Z,98331.42
2018-10-18T00:23:02.486Z,98325.70
2018-10-18T00:24:06.669Z,98328.33
2018-10-18T00:25:09.742Z,98327.30
2018-10-18T00:26:12.621Z,98329.03
2018-10-18T00:27:15.609Z,98328.69
2018-10-18T00:28:19.343Z,98336.53
2018-10-18T00:29:25.323Z,98327.90
2018-10-18T00:30:30.462Z,98330.13
2018-10-18T00:31:33.190Z,98335.24
2018-10-18T00:32:36.846Z,98331.75
2018-10-18T00:33:42.584Z,98335.02
2018-10-18T00:34:45.629Z,98326.48
2018-10-18T00:35:51.692Z,98329.41
2018-10-18T00:36:54.418Z,98324.59
2018-10-18T00:38:00.043Z,98326.08
2018-10-18T00:39:04.100Z,98328.07
2018-10-18T00:40:08.001Z,98325.23
2018-10-18T00:41:11.997Z,98325.61
2018-10-18T00:42:14.929Z,98328.55
2018-10-18T00:43:18.217Z,98325.50
2018-10-18T00:44:20.938Z,98322.72
2018-10-18T00:45:23.788Z,98325.31
2018-10-18T00:46:26.476Z,98326.59
2018-10-18T00:47:29.476Z,98322.49
2018-10-18T00:48:33.051Z,98322.20
2018-10-18T00:49:36.071Z,98321.08
2018-10-18T00:50:39.268Z,98325.51
2018-10-18T00:51:43.517Z,98319.41
2018-10-18T00:52:46.219Z,98323.56
2018-10-18T00:53:49.239Z,98316.98
2018-10-18T00:54:52.168Z,98321.12
2018-10-18T00:55:55.857Z,98318.22
2018-10-18T00:56:58.542Z,98321.78
2018-10-18T00:58:02.019Z,98327.53
2018-10-18T00:59:04.762Z,98322.59
2018-10-18T01:00:09.992Z,98322.27
2018-10-18T01:01:12.811Z,98326.17
2018-10-18T01:02:16.196Z,98325.34
2018-10-18T01:03:19.006Z,98324.27
2018-10-18T01:04:21.746Z,98324.20
2018-10-18T01:05:24.713Z,98335.20
2018-10-18T01:06:27.441Z,98333.45
2018-10-18T01:07:30.356Z,98325.66
2018-10-18T01:08:33.330Z,98326.09
2018-10-18T01:09:36.039Z,98327.56
2018-10-18T01:10:42.532Z,98328.22
2018-10-18T01:11:45.547Z,98329.03
2018-10-18T01:12:48.592Z,98327.95
2018-10-18T01:13:51.256Z,98324.44
2018-10-18T01:14:54.058Z,98335.59
2018-10-18T01:15:56.843Z,98330.48
2018-10-18T01:17:05.588Z,98322.63
2018-10-18T01:18:08.803Z,98333.00
2018-10-18T01:19:11.566Z,98329.92
2018-10-18T01:20:15.052Z,98324.50
2018-10-18T01:21:17.963Z,98326.11
2018-10-18T01:22:21.260Z,98327.47
2018-10-18T01:23:26.621Z,98323.98
2018-10-18T01:24:29.551Z,98319.30
2018-10-18T01:25:33.909Z,98322.18
2018-10-18T01:26:37.296Z,98324.70
2018-10-18T01:27:41.424Z,98319.11
2018-10-18T01:28:44.093Z,98319.49
2018-10-18T01:29:47.500Z,98323.45
2018-10-18T01:30:50.701Z,98321.61
2018-10-18T01:31:53.455Z,98318.16
2018-10-18T01:32:56.281Z,98318.44
2018-10-18T01:33:59.139Z,98317.91
2018-10-18T01:35:02.156Z,98320.83
2018-10-18T01:36:05.248Z,98319.23
2018-10-18T01:37:08.136Z,98325.41
2018-10-18T01:38:11.257Z,98321.25
2018-10-18T01:39:14.013Z,98317.61
2018-10-18T01:40:17.019Z,98323.98
2018-10-18T01:41:20.007Z,98317.61
2018-10-18T01:42:22.730Z,98321.70
2018-10-18T01:43:25.665Z,98319.38
2018-10-18T01:44:28.409Z,98319.16
2018-10-18T01:45:31.185Z,98321.91
2018-10-18T01:46:34.541Z,98318.30
2018-10-18T01:47:38.001Z,98316.39
2018-10-18T01:48:40.696Z,98318.93
2018-10-18T01:49:43.449Z,98317.26
2018-10-18T01:50:46.166Z,98319.98
2018-10-18T01:51:48.889Z,98317.16
2018-10-18T01:52:51.625Z,98314.28
2018-10-18T01:53:54.652Z,98313.91
2018-10-18T01:54:58.181Z,98319.80
2018-10-18T01:56:00.985Z,98315.47
2018-10-18T01:57:03.723Z,98316.20
2018-10-18T01:58:06.932Z,98315.95
2018-10-18T01:59:11.252Z,98314.88
2018-10-18T02:00:15.384Z,98312.25
2018-10-18T02:01:17.955Z,98316.10
2018-10-18T02:02:20.672Z,98316.39
2018-10-18T02:03:23.368Z,98318.30
2018-10-18T02:04:26.056Z,98317.51
2018-10-18T02:05:28.774Z,98325.98
2018-10-18T02:06:31.851Z,98321.25
2018-10-18T02:07:34.551Z,98322.90
2018-10-18T02:08:38.011Z,98324.30
2018-10-18T02:09:40.789Z,98324.87
2018-10-18T02:10:43.495Z,98324.39
2018-10-18T02:11:46.181Z,98327.92
2018-10-18T02:12:49.171Z,98331.70
2018-10-18T02:13:51.891Z,98334.49
2018-10-18T02:14:54.628Z,98330.92
2018-10-18T02:15:58.300Z,98332.84
2018-10-18T02:17:01.024Z,98332.52
2018-10-18T02:18:03.762Z,98328.95
2018-10-18T02:19:07.290Z,98337.73
2018-10-18T02:20:10.755Z,98334.70
2018-10-18T02:21:13.474Z,98335.38
2018-10-18T02:22:16.178Z,98334.75
2018-10-18T02:23:18.911Z,98335.05
2018-10-18T02:24:21.609Z,98341.77
2018-10-18T02:25:24.603Z,98341.52
2018-10-18T02:26:27.630Z,98334.78
2018-10-18T02:27:30.362Z,98338.58
2018-10-18T02:28:33.166Z,98336.48
2018-10-18T02:29:35.922Z,98336.23
2018-10-18T02:30:38.668Z,98333.98
2018-10-18T02:31:41.696Z,98334.75
2018-10-18T02:32:45.645Z,98330.66
2018-10-18T02:33:48.431Z,98331.61
2018-10-18T02:34:51.196Z,98326.95
2018-10-18T02:35:54.168Z,98331.83
2018-10-18T02:36:57.248Z,98329.84
2018-10-18T02:38:00.734Z,98329.44
2018-10-18T02:39:03.560Z,98335.50
2018-10-18T02:40:06.291Z,98330.05
2018-10-18T02:41:09.298Z,98329.41
2018-10-18T02:42:12.081Z,98334.73
2018-10-18T02:43:14.822Z,98329.68
2018-10-18T02:44:17.903Z,98331.32
2018-10-18T02:45:20.639Z,98326.29
2018-10-18T02:46:23.600Z,98331.37
2018-10-18T02:47:26.340Z,98322.11
2018-10-18T02:48:29.081Z,98324.99
2018-10-18T02:49:31.794Z,98317.36
2018-10-18T02:50:34.797Z,98324.96
2018-10-18T02:51:37.517Z,98321.84
2018-10-18T02:52:40.239Z,98328.27
2018-10-18T02:53:42.981Z,98330.72
2018-10-18T02:54:45.710Z,98332.14
2018-10-18T02:55:48.430Z,98330.15
2018-10-18T02:56:51.402Z,98324.63
2018-10-18T02:57:54.122Z,98324.97
2018-10-18T02:58:56.819Z,98323.45
2018-10-18T02:59:59.587Z,98328.12
2018-10-18T03:01:02.303Z,98329.05
2018-10-18T03:02:05.003Z,98329.63
2018-10-18T03:03:08.057Z,98336.52
2018-10-18T03:04:10.760Z,98335.30
2018-10-18T03:05:13.447Z,98341.27
2018-10-18T03:06:16.272Z,98343.64
2018-10-18T03:07:19.001Z,98344.28
2018-10-18T03:08:21.842Z,98343.00
2018-10-18T03:09:24.867Z,98344.21
2018-10-18T03:10:27.585Z,98350.94
2018-10-18T03:11:30.300Z,98350.39
2018-10-18T03:12:33.104Z,98356.81
2018-10-18T03:13:35.837Z,98352.73
2018-10-18T03:14:38.568Z,98356.25
2018-10-18T03:15:41.555Z,98355.37
2018-10-18T03:16:44.290Z,98357.38
2018-10-18T03:17:47.089Z,98355.45
2018-10-18T03:18:49.820Z,98361.57
2018-10-18T03:19:52.720Z,98359.96
2018-10-18T03:20:55.419Z,98362.27
2018-10-18T03:21:58.832Z,98356.80
2018-10-18T03:23:01.530Z,98350.75
2018-10-18T03:24:04.261Z,98358.50
2018-10-18T03:25:07.009Z,98358.91
2018-10-18T03:26:09.732Z,98359.66
2018-10-18T03:27:12.450Z,98364.80
2018-10-18T03:28:15.459Z,98359.17
2018-10-18T03:29:18.178Z,98364.89
2018-10-18T03:30:21.018Z,98366.05
2018-10-18T03:31:23.739Z,98365.66
2018-10-18T03:32:26.490Z,98370.55
2018-10-18T03:33:29.234Z,98369.91
2018-10-18T03:34:32.266Z,98373.19
2018-10-18T03:35:34.959Z,98373.92
2018-10-18T03:36:37.785Z,98377.36
2018-10-18T03:37:40.610Z,98378.39
2018-10-18T03:38:43.314Z,98378.72
2018-10-18T03:39:46.050Z,98374.55
2018-10-18T03:40:49.119Z,98384.83
2018-10-18T03:41:51.939Z,98381.44
2018-10-18T03:42:54.672Z,98387.26
2018-10-18T03:43:57.373Z,98386.39
2018-10-18T03:45:00.100Z,98390.06
2018-10-18T03:46:02.807Z,98387.48
2018-10-18T03:47:05.826Z,98390.28
2018-10-18T03:48:08.643Z,98389.25
2018-10-18T03:49:11.414Z,98395.67
2018-10-18T03:50:14.114Z,98388.89
2018-10-18T03:51:17.636Z,98394.61
2018-10-18T03:52:20.342Z,98390.03
2018-10-18T03:53:23.358Z,98390.11
2018-10-18T03:54:26.119Z,98393.00
2018-10-18T03:55:28.860Z,98394.91
2018-10-18T03:56:31.649Z,98386.52
2018-10-18T03:57:34.348Z,98386.36
2018-10-18T03:58:37.731Z,98388.27
2018-10-18T03:59:40.855Z,98384.99
2018-10-18T04:00:43.627Z,98390.36
2018-10-18T04:01:46.361Z,98383.14
2018-10-18T04:02:49.112Z,98390.52
2018-10-18T04:03:53.392Z,98386.35
2018-10-18T04:04:56.110Z,98394.20
2018-10-18T04:05:59.175Z,98383.22
2018-10-18T04:07:01.891Z,98385.78
2018-10-18T04:08:04.622Z,98387.47
2018-10-18T04:09:07.348Z,98386.68
2018-10-18T04:10:10.090Z,98388.91
2018-10-18T04:11:12.781Z,98388.42
2018-10-18T04:12:15.930Z,98387.14
2018-10-18T04:13:18.669Z,98389.70
2018-10-18T04:14:21.950Z,98393.09
2018-10-18T04:15:24.660Z,98388.27
2018-10-18T04:16:27.369Z,98390.12
2018-10-18T04:17:30.183Z,98385.54
2018-10-18T04:18:33.183Z,98386.73
2018-10-18T04:19:35.960Z,98386.48
2018-10-18T04:20:38.663Z,98388.84
2018-10-18T04:21:41.397Z,98396.77
2018-10-18T04:22:44.136Z,98389.62
2018-10-18T04:23:46.858Z,98389.95
2018-10-18T04:24:49.954Z,98391.80
2018-10-18T04:25:52.676Z,98395.86
2018-10-18T04:26:55.430Z,98395.31
2018-10-18T04:27:58.197Z,98391.15
2018-10-18T04:29:00.902Z,98400.61
2018-10-18T04:30:03.720Z,98398.63
2018-10-18T04:31:06.674Z,98404.78
2018-10-18T04:32:09.413Z,98401.64
2018-10-18T04:33:12.120Z,98404.12
2018-10-18T04:34:14.864Z,98401.09
2018-10-18T04:35:17.588Z,98405.97
2018-10-18T04:36:20.363Z,98399.00
2018-10-18T04:37:23.421Z,98404.39
2018-10-18T04:38:26.122Z,98401.58
2018-10-18T04:39:28.814Z,98402.77
2018-10-18T04:40:31.489Z,98404.69
2018-10-18T04:41:34.273Z,98402.76
2018-10-18T04:42:37.058Z,98404.20
2018-10-18T04:43:40.687Z,98399.77
2018-10-18T04:44:43.383Z,98406.19
2018-10-18T04:45:46.744Z,98403.45
2018-10-18T04:46:50.145Z,98402.94
2018-10-18T04:47:54.127Z,98403.50
2018-10-18T04:48:56.763Z,98408.39
2018-10-18T04:49:59.759Z,98398.57
2018-10-18T04:51:03.467Z,98398.30
2018-10-18T04:52:07.176Z,98406.97
2018-10-18T04:53:09.982Z,98402.21
2018-10-18T04:54:12.933Z,98403.73
2018-10-18T04:55:15.754Z,98406.03
2018-10-18T04:56:18.710Z,98404.39
2018-10-18T04:57:21.522Z,98403.32
2018-10-18T04:58:24.226Z,98405.63
2018-10-18T04:59:27.980Z,98411.42
2018-10-18T05:00:31.086Z,98411.23
2018-10-18T05:01:33.830Z,98404.74
2018-10-18T05:02:37.070Z,98410.30
2018-10-18T05:03:40.744Z,98411.42
2018-10-18T05:04:43.477Z,98412.00
2018-10-18T05:05:46.366Z,98414.54
2018-10-18T05:06:49.265Z,98409.53
2018-10-18T05:07:51.959Z,98411.84
2018-10-18T05:08:56.430Z,98407.03
2018-10-18T05:09:59.125Z,98417.94
2018-10-18T05:11:01.857Z,98415.48
2018-10-18T05:12:04.607Z,98420.80
2018-10-18T05:13:08.211Z,98418.31
2018-10-18T05:14:10.904Z,98413.20
2018-10-18T05:15:14.165Z,98417.99
2018-10-18T05:16:16.865Z,98420.01
2018-10-18T05:17:19.599Z,98417.20
2018-10-18T05:18:22.763Z,98421.83
2018-10-18T05:19:25.602Z,98417.02
2018-10-18T05:20:28.366Z,98418.86
2018-10-18T05:21:31.538Z,98414.39
2018-10-18T05:22:34.330Z,98410.38
2018-10-18T05:23:37.728Z,98412.27
2018-10-18T05:24:42.630Z,98412.82
2018-10-18T05:25:47.968Z,98417.61
2018-10-18T05:26:51.572Z,98412.19
2018-10-18T05:27:54.726Z,98414.91
2018-10-18T05:28:57.678Z,98408.73
2018-10-18T05:30:06.362Z,98408.34
2018-10-18T05:44:28.728Z,98427.67
2018-10-18T05:45:31.601Z,98427.53
2018-10-18T05:46:34.648Z,98422.63
2018-10-18T05:47:37.555Z,98426.51
2018-10-18T05:48:40.440Z,98423.98
2018-10-18T05:55:15.736Z,98438.09
2018-10-18T05:56:18.583Z,98437.50
2018-10-18T05:57:22.063Z,98445.70
2018-10-18T05:58:26.047Z,98451.31
2018-10-18T05:59:29.175Z,98447.70
2018-10-18T06:00:33.823Z,98453.37
2018-10-18T06:01:39.182Z,98458.05
2018-10-18T06:02:42.498Z,98462.29
2018-10-18T06:03:45.183Z,98456.16
2018-10-18T06:04:48.716Z,98461.21
2018-10-18T06:05:51.421Z,98461.76
2018-10-18T06:06:54.199Z,98464.30
2018-10-18T06:07:57.516Z,98463.98
2018-10-18T06:09:00.311Z,98462.63
2018-10-18T06:10:03.148Z,98467.99
2018-10-18T06:11:05.804Z,98466.36
2018-10-18T06:12:08.516Z,98470.29
2018-10-18T06:13:11.305Z,98470.94
2018-10-18T06:14:14.382Z,98467.39
2018-10-18T06:15:17.143Z,98470.53
2018-10-18T06:16:19.821Z,98470.29
2018-10-18T06:17:22.506Z,98474.37
2018-10-18T06:18:25.308Z,98467.05
2018-10-18T06:19:28.050Z,98473.00
2018-10-18T06:20:34.720Z,98472.90
2018-10-18T06:21:37.604Z,98473.45
2018-10-18T06:22:41.072Z,98469.59
2018-10-18T06:23:44.361Z,98466.81
2018-10-18T06:24:47.716Z,98473.92
2018-10-18T06:25:50.898Z,98471.13
2018-10-18T06:26:54.168Z,98470.69
2018-10-18T06:27:57.541Z,98471.81
2018-10-18T06:29:00.386Z,98471.03
2018-10-18T06:30:03.240Z,98474.34
2018-10-18T06:31:06.794Z,98472.67
2018-10-18T06:32:10.507Z,98478.35
2018-10-18T06:33:13.660Z,98471.52
2018-10-18T06:34:16.441Z,98477.02
2018-10-18T06:35:20.439Z,98477.98
2018-10-18T06:36:23.185Z,98483.34
2018-10-18T06:37:26.006Z,98479.04
2018-10-18T06:38:28.689Z,98477.88
2018-10-18T06:39:32.456Z,98480.23
2018-10-18T06:40:35.171Z,98479.45
2018-10-18T06:41:38.423Z,98473.05
2018-10-18T06:42:41.510Z,98479.69
2018-10-18T06:43:44.279Z,98479.69
2018-10-18T06:44:47.033Z,98487.34
2018-10-18T06:45:50.107Z,98489.84
2018-10-18T06:46:52.863Z,98489.50
2018-10-18T06:47:55.809Z,98491.22
2018-10-18T06:48:59.219Z,98489.16
2018-10-18T06:50:02.423Z,98492.14
2018-10-18T06:51:05.870Z,98489.77
2018-10-18T06:52:09.232Z,98489.33
2018-10-18T06:53:11.939Z,98487.20
2018-10-18T06:54:15.032Z,98490.63
2018-10-18T06:55:17.854Z,98480.23
2018-10-18T06:56:20.545Z,98479.78
2018-10-18T06:57:24.447Z,98483.09
2018-10-18T06:58:28.185Z,98481.63
2018-10-18T06:59:31.994Z,98484.97
2018-10-18T07:00:34.829Z,98482.58
2018-10-18T07:01:37.591Z,98487.60
2018-10-18T07:02:42.074Z,98483.31
2018-10-18T07:03:44.956Z,98486.86
2018-10-18T07:04:49.733Z,98488.84
2018-10-18T07:05:52.473Z,98486.02
2018-10-18T07:06:55.165Z,98490.11
2018-10-18T07:07:57.904Z,98481.69
2018-10-18T07:09:00.887Z,98487.58
2018-10-18T07:10:03.943Z,98486.89
2018-10-18T07:11:07.186Z,98480.48
2018-10-18T07:12:11.187Z,98484.12
2018-10-18T07:13:15.771Z,98491.48
2018-10-18T07:14:19.979Z,98480.05
2018-10-18T07:15:22.726Z,98486.70
2018-10-18T07:16:27.012Z,98484.23
2018-10-18T07:17:30.795Z,98482.79
2018-10-18T07:18:33.792Z,98480.84
2018-10-18T07:19:36.752Z,98481.30
2018-10-18T07:20:43.943Z,98482.31
2018-10-18T07:21:46.781Z,98484.61
2018-10-18T07:22:49.501Z,98491.34
2018-10-18T07:23:53.241Z,98490.66
2018-10-18T07:24:57.956Z,98493.53
2018-10-18T07:26:01.662Z,98495.41
2018-10-18T07:27:05.539Z,98494.39
2018-10-18T07:28:08.708Z,98492.41
2018-10-18T07:29:11.554Z,98487.70
2018-10-18T07:30:16.924Z,98484.23
2018-10-18T07:31:20.583Z,98486.41
2018-10-18T07:32:24.316Z,98487.42
2018-10-18T07:33:27.965Z,98490.67
2018-10-18T07:34:30.737Z,98495.30
2018-10-18T07:35:34.008Z,98495.01
2018-10-18T07:36:38.364Z,98489.07
2018-10-18T07:37:44.572Z,98489.97
2018-10-18T07:38:49.520Z,98494.95
2018-10-18T07:39:54.386Z,98491.98
2018-10-18T07:41:02.338Z,98495.98
2018-10-18T07:42:05.800Z,98492.67
2018-10-18T07:43:09.105Z,98493.78
2018-10-18T07:44:12.821Z,98493.02
2018-10-18T07:45:16.096Z,98492.36
2018-10-18T07:46:19.554Z,98488.76
2018-10-18T07:47:23.767Z,98496.31
2018-10-18T07:48:28.535Z,98496.59
2018-10-18T07:49:32.640Z,98500.02
2018-10-18T07:50:37.065Z,98498.86
2018-10-18T07:51:39.962Z,98500.27
2018-10-18T07:52:43.866Z,98494.09
2018-10-18T07:53:47.948Z,98497.17
2018-10-18T07:54:52.860Z,98500.47
2018-10-18T07:55:56.367Z,98503.33
2018-10-18T07:56:59.512Z,98500.59
2018-10-18T07:58:02.395Z,98503.02
2018-10-18T07:59:05.697Z,98501.17
2018-10-18T08:00:11.363Z,98497.14
2018-10-18T08:01:17.040Z,98500.94
2018-10-18T08:02:22.656Z,98508.34
2018-10-18T08:03:26.540Z,98504.03
2018-10-18T08:04:30.738Z,98509.88
2018-10-18T08:05:33.726Z,98509.41
2018-10-18T08:06:36.695Z,98508.03
2018-10-18T08:07:40.155Z,98508.82
2018-10-18T08:08:44.033Z,98508.22
2018-10-18T08:09:49.672Z,98505.69
2018-10-18T08:10:58.336Z,98503.59
2018-10-18T08:12:01.893Z,98505.22
2018-10-18T08:13:05.233Z,98504.17
2018-10-18T08:14:09.682Z,98503.56
2018-10-18T08:15:14.039Z,98505.80
2018-10-18T08:16:17.764Z,98508.32
2018-10-18T08:17:20.560Z,98507.44
2018-10-18T08:18:23.447Z,98510.33
2018-10-18T08:19:26.573Z,98509.59
2018-10-18T08:20:29.848Z,98505.70
2018-10-18T08:21:35.192Z,98507.26
2018-10-18T08:22:38.538Z,98503.28
2018-10-18T08:23:41.699Z,98507.63
2018-10-18T08:24:44.716Z,98507.45
2018-10-18T08:25:49.216Z,98499.92
2018-10-18T08:26:55.476Z,98506.94
2018-10-18T08:27:58.571Z,98500.94
2018-10-18T08:29:01.451Z,98496.56
2018-10-18T08:30:04.733Z,98496.80
2018-10-18T08:31:08.455Z,98499.77
2018-10-18T08:32:11.315Z,98500.84
2018-10-18T08:33:14.428Z,98504.81
2018-10-18T08:34:18.564Z,98499.53
2018-10-18T08:35:22.146Z,98494.88
2018-10-18T08:36:26.661Z,98498.14
2018-10-18T08:37:30.159Z,98496.78
2018-10-18T08:38:34.432Z,98491.60
2018-10-18T08:39:38.712Z,98494.67
2018-10-18T08:40:42.598Z,98498.80
2018-10-18T08:41:45.667Z,98503.29
2018-10-18T08:42:50.771Z,98497.65
2018-10-18T08:43:53.573Z,98503.95
2018-10-18T08:44:57.561Z,98504.20
2018-10-18T08:46:01.435Z,98503.68
2018-10-18T08:47:09.348Z,98501.78
2018-10-18T08:48:13.472Z,98508.72
2018-10-18T08:49:16.294Z,98505.91
2018-10-18T08:50:19.067Z,98512.17
2018-10-18T08:51:21.901Z,98508.44
2018-10-18T08:52:36.398Z,98508.33
2018-10-18T08:53:39.200Z,98510.14
2018-10-18T08:54:41.955Z,98505.84
2018-10-18T08:55:44.726Z,98500.75
2018-10-18T08:56:48.569Z,98511.50
2018-10-18T08:57:51.872Z,98506.83
2018-10-18T08:58:55.266Z,98512.45
2018-10-18T08:59:58.144Z,98515.53
2018-10-18T09:01:01.928Z,98508.80
2018-10-18T09:02:06.901Z,98511.54
2018-10-18T09:03:10.604Z,98514.15
2018-10-18T09:04:16.270Z,98515.81
2018-10-18T09:05:23.523Z,98511.58
2018-10-18T09:06:27.648Z,98502.78
2018-10-18T09:07:35.051Z,98506.97
2018-10-18T09:08:38.390Z,98510.63
2018-10-18T09:09:42.369Z,98506.70
2018-10-18T09:10:45.132Z,98513.70
2018-10-18T09:11:48.672Z,98509.56
2018-10-18T09:12:52.305Z,98504.83
2018-10-18T09:13:55.470Z,98507.39
2018-10-18T09:15:00.779Z,98511.88
2018-10-18T09:16:05.335Z,98502.22
2018-10-18T09:17:08.298Z,98511.44
2018-10-18T09:18:11.463Z,98508.05
2018-10-18T09:19:17.004Z,98514.34
2018-10-18T09:20:20.041Z,98516.55
2018-10-18T09:21:24.584Z,98510.66
2018-10-18T09:22:30.516Z,98513.44
2018-10-18T09:23:35.682Z,98514.51
2018-10-18T09:24:41.023Z,98513.72
2018-10-18T09:25:45.687Z,98516.63
2018-10-18T09:26:55.246Z,98515.16
2018-10-18T09:27:57.961Z,98517.64
2018-10-18T09:29:01.848Z,98519.18
2018-10-18T09:30:04.605Z,98513.04
2018-10-18T09:31:08.091Z,98517.17
2018-10-18T09:32:10.880Z,98514.63
2018-10-18T09:33:15.435Z,98522.06
2018-10-18T09:34:18.760Z,98519.66
2018-10-18T09:35:23.496Z,98520.61
2018-10-18T09:36:26.383Z,98523.97
2018-10-18T09:37:29.492Z,98529.06
2018-10-18T09:38:32.252Z,98521.65
2018-10-18T09:39:35.479Z,98520.03
2018-10-18T09:40:38.341Z,98532.69
2018-10-18T09:41:41.141Z,98526.02
2018-10-18T09:42:43.983Z,98522.53
2018-10-18T09:43:49.376Z,98521.77
2018-10-18T09:44:53.616Z,98518.22
2018-10-18T09:45:59.781Z,98518.55
2018-10-18T09:47:03.584Z,98520.56
2018-10-18T09:48:07.922Z,98521.05
2018-10-18T09:49:11.446Z,98521.52
2018-10-18T09:50:16.340Z,98518.16
2018-10-18T09:51:23.447Z,98526.70
2018-10-18T09:52:27.769Z,98510.30
2018-10-18T09:53:36.129Z,98519.59
2018-10-18T09:54:40.655Z,98522.01
2018-10-18T09:55:47.288Z,98520.90
2018-10-18T09:56:52.334Z,98513.86
2018-10-18T09:57:56.806Z,98517.02
2018-10-18T09:59:02.498Z,98516.80
2018-10-18T10:00:06.224Z,98512.64
2018-10-18T10:01:15.262Z,98519.87
2018-10-18T10:02:23.500Z,98513.55
2018-10-18T10:03:26.405Z,98508.38
2018-10-18T10:04:29.869Z,98513.88
2018-10-18T10:05:33.093Z,98518.20
2018-10-18T10:06:37.693Z,98515.24
2018-10-18T10:07:41.654Z,98518.96
2018-10-18T10:08:45.994Z,98514.37
2018-10-18T10:09:49.103Z,98522.90
2018-10-18T10:10:52.516Z,98515.95
2018-10-18T10:11:57.222Z,98519.27
2018-10-18T10:13:00.912Z,98518.19
2018-10-18T10:14:04.631Z,98522.41
2018-10-18T10:15:08.613Z,98518.80
2018-10-18T10:16:12.320Z,98520.80
2018-10-18T10:17:16.090Z,98517.59
2018-10-18T10:18:19.528Z,98513.36
2018-10-18T10:19:23.816Z,98520.14
2018-10-18T10:20:26.607Z,98526.44
2018-10-18T10:21:29.807Z,98515.73
2018-10-18T10:22:32.816Z,98517.45
2018-10-18T10:23:37.338Z,98523.22
2018-10-18T10:24:40.809Z,98516.76
2018-10-18T10:25:44.608Z,98516.81
2018-10-18T10:26:47.726Z,98516.20
2018-10-18T10:27:52.023Z,98519.48
2018-10-18T10:28:55.334Z,98517.67
2018-10-18T10:30:01.161Z,98517.95
2018-10-18T10:43:04.129Z,98518.63
2018-10-18T10:44:11.026Z,98518.44
2018-10-18T10:45:15.764Z,98517.39
2018-10-18T10:46:19.390Z,98516.07
2018-10-18T10:47:22.274Z,98524.91
2018-10-18T10:48:25.716Z,98522.56
2018-10-18T10:49:29.745Z,98529.02
2018-10-18T10:50:32.541Z,98524.03
2018-10-18T10:51:35.462Z,98533.19
2018-10-18T10:52:38.588Z,98531.46
2018-10-18T10:53:41.310Z,98529.45
2018-10-18T10:54:44.670Z,98529.16
2018-10-18T10:55:47.515Z,98533.53
2018-10-18T10:56:50.252Z,98532.00
2018-10-18T10:57:53.847Z,98531.27
2018-10-18T10:58:56.805Z,98534.29
2018-10-18T11:00:04.647Z,98535.59
2018-10-18T11:01:08.439Z,98536.60
2018-10-18T11:02:11.657Z,98537.42
2018-10-18T11:03:14.802Z,98539.27
2018-10-18T11:04:21.270Z,98541.38
2018-10-18T11:05:25.644Z,98535.53
2018-10-18T11:06:29.469Z,98536.38
2018-10-18T11:07:33.012Z,98535.83
2018-10-18T11:08:38.259Z,98536.98
2018-10-18T11:09:42.390Z,98535.94
2018-10-18T11:10:46.713Z,98536.58
2018-10-18T11:11:50.886Z,98530.73
2018-10-18T11:12:53.699Z,98533.67
2018-10-18T11:13:56.855Z,98528.41
2018-10-18T11:15:01.630Z,98531.88
2018-10-18T11:16:05.125Z,98530.37
2018-10-18T11:17:08.911Z,98531.91
2018-10-18T11:18:14.003Z,98532.84
2018-10-18T11:19:18.145Z,98535.16
2018-10-18T11:20:21.783Z,98531.25
2018-10-18T11:21:24.524Z,98530.58
2018-10-18T11:22:27.601Z,98530.06
2018-10-18T11:23:30.985Z,98534.19
2018-10-18T11:24:34.933Z,98526.58
2018-10-18T11:25:38.921Z,98528.78
2018-10-18T11:26:44.467Z,98532.02
2018-10-18T11:27:47.490Z,98523.41
2018-10-18T11:28:51.448Z,98523.88
2018-10-18T11:29:54.562Z,98525.94
2018-10-18T11:31:00.429Z,98526.83
2018-10-18T11:32:03.822Z,98523.71
2018-10-18T11:33:08.778Z,98523.59
2018-10-18T11:34:15.028Z,98527.23
2018-10-18T11:35:17.881Z,98525.09
2018-10-18T11:36:20.634Z,98529.90
2018-10-18T11:37:25.015Z,98530.21
2018-10-18T11:38:28.548Z,98530.43
2018-10-18T11:39:32.214Z,98524.00
2018-10-18T11:40:35.085Z,98520.11
2018-10-18T11:41:37.923Z,98522.92
2018-10-18T11:42:40.795Z,98516.99
2018-10-18T11:43:46.967Z,98524.27
2018-10-18T11:44:50.811Z,98526.19
2018-10-18T11:45:55.343Z,98523.71
2018-10-18T11:46:59.128Z,98519.34
2018-10-18T11:48:02.025Z,98521.14
2018-10-18T11:49:04.781Z,98515.73
2018-10-18T11:50:08.475Z,98513.55
2018-10-18T11:51:12.775Z,98514.27
2018-10-18T11:52:16.152Z,98509.62
2018-10-18T11:53:19.455Z,98513.34
2018-10-18T11:54:27.625Z,98514.11
2018-10-18T11:55:31.783Z,98518.76
2018-10-18T11:56:34.838Z,98521.84
2018-10-18T11:57:38.863Z,98521.97
2018-10-18T11:58:42.526Z,98518.47
2018-10-18T11:59:46.445Z,98519.31
2018-10-18T12:00:49.915Z,98517.18
2018-10-18T12:01:53.532Z,98526.02
2018-10-18T12:02:57.282Z,98515.08
2018-10-18T12:04:00.633Z,98524.75
2018-10-18T12:05:03.547Z,98524.85
2018-10-18T12:06:06.662Z,98527.69
2018-10-18T12:07:10.279Z,98525.97
2018-10-18T12:08:15.344Z,98523.42
2018-10-18T12:09:22.718Z,98521.49
2018-10-18T12:10:26.907Z,98528.00
2018-10-18T12:11:31.966Z,98518.67
2018-10-18T12:12:35.436Z,98523.38
2018-10-18T12:13:38.287Z,98525.35
2018-10-18T12:14:42.627Z,98523.52
2018-10-18T12:15:46.500Z,98524.42
2018-10-18T12:16:49.589Z,98536.98
2018-10-18T12:17:52.779Z,98532.09
2018-10-18T12:18:55.633Z,98532.03
2018-10-18T12:19:58.685Z,98531.41
2018-10-18T12:21:02.743Z,98534.00
2018-10-18T12:22:09.995Z,98530.83
2018-10-18T12:23:14.260Z,98530.17
2018-10-18T12:24:19.573Z,98531.99
2018-10-18T12:25:23.863Z,98536.48
2018-10-18T12:26:28.480Z,98533.84
2018-10-18T12:27:31.270Z,98534.35
2018-10-18T12:28:34.681Z,98531.14
2018-10-18T12:29:39.620Z,98523.88
2018-10-18T12:30:44.888Z,98533.39
2018-10-18T12:31:48.556Z,98527.92
2018-10-18T12:32:51.863Z,98538.27
2018-10-18T12:33:58.061Z,98533.66
2018-10-18T12:35:02.350Z,98530.14
2018-10-18T12:36:08.453Z,98538.28
2018-10-18T12:37:13.672Z,98539.00
2018-10-18T12:38:18.772Z,98535.89
2018-10-18T12:39:23.851Z,98540.95
2018-10-18T12:40:30.519Z,98539.98
2018-10-18T12:41:35.291Z,98533.92
2018-10-18T12:42:42.216Z,98539.22
2018-10-18T12:43:48.507Z,98537.63
2018-10-18T12:44:53.359Z,98531.48
2018-10-18T12:45:59.421Z,98536.09
2018-10-18T12:47:04.585Z,98533.06
2018-10-18T12:48:09.361Z,98539.77
2018-10-18T12:49:15.649Z,98536.16
2018-10-18T12:50:22.296Z,98530.73
2018-10-18T12:51:36.134Z,98527.30
2018-10-18T12:52:39.833Z,98531.88
2018-10-18T12:53:43.181Z,98527.63
2018-10-18T12:54:46.473Z,98525.65
2018-10-18T12:55:51.217Z,98524.17
2018-10-18T12:56:55.937Z,98515.22
2018-10-18T12:58:00.449Z,98520.34